Time,TemperatureF,DewpointF,PressureIn,WindDirection,WindDirectionDegrees,WindSpeedMPH,WindSpeedGustMPH,Humidity,HourlyPrecipIn,Conditions,Clouds,dailyrainin,SoftwareType,DateUTC
2013-09-22 00:00:00,74.6,69.8,29.72,NNW,330,0.0,6.0,85,0.00,,---,0.00,VWS V14.01,2013-09-22 04:00:00,
2013-09-22 00:01:00,74.6,69.8,29.71,NNW,337,0.0,1.0,85,0.00,,---,0.00,VWS V14.01,2013-09-22 04:01:00,
2013-09-22 00:02:00,74.7,69.9,29.71,North,5,0.0,3.0,85,0.00,,---,0.00,VWS V14.01,2013-09-22 04:02:00,
2013-09-22 00:08:00,74.7,69.9,29.71,NNW,331,0.0,5.0,85,0.00,,---,0.00,VWS V14.01,2013-09-22 04:08:00,
2013-09-22 00:13:00,74.7,69.9,29.71,NNW,331,0.0,5.0,85,0.00,,---,0.00,VWS V14.01,2013-09-22 04:13:00,
2013-09-22 00:18:00,74.7,69.9,29.71,NNW,337,0.0,5.0,85,0.00,,---,0.00,VWS V14.01,2013-09-22 04:18:00,
2013-09-22 00:23:00,74.7,69.9,29.71,NW,321,0.0,5.0,85,0.00,,---,0.00,VWS V14.01,2013-09-22 04:23:00,
2013-09-22 00:27:00,74.7,69.9,29.71,NNW,341,0.0,5.0,85,0.00,,---,0.00,VWS V14.01,2013-09-22 04:27:00,
2013-09-22 00:30:00,74.8,70.0,29.71,North,355,0.0,5.0,85,0.00,,---,0.00,VWS V14.01,2013-09-22 04:30:00,
2013-09-22 00:32:00,74.8,70.0,29.71,North,349,0.0,4.0,85,0.00,,---,0.00,VWS V14.01,2013-09-22 04:32:00,
2013-09-22 00:38:00,74.7,69.9,29.70,NW,324,0.0,4.0,85,0.00,,---,0.00,VWS V14.01,2013-09-22 04:38:00,
2013-09-22 00:43:00,74.7,69.9,29.70,NNW,344,0.0,4.0,85,0.00,,---,0.00,VWS V14.01,2013-09-22 04:43:00,
2013-09-22 00:48:00,74.6,69.8,29.70,NNW,344,0.0,4.0,85,0.00,,---,0.00,VWS V14.01,2013-09-22 04:48:00,
2013-09-22 00:53:00,74.6,69.8,29.71,NNW,336,1.0,6.0,85,0.00,,---,0.00,VWS V14.01,2013-09-22 04:53:00,
2013-09-22 00:58:00,74.7,69.9,29.71,NNW,333,0.0,6.0,85,0.00,,---,0.00,VWS V14.01,2013-09-22 04:58:00,
2013-09-22 01:00:00,74.7,69.9,29.71,NW,326,2.0,6.0,85,0.00,,---,0.00,VWS V14.01,2013-09-22 05:00:00,
2013-09-22 01:03:00,74.7,69.9,29.70,NNW,332,0.0,3.0,85,0.00,,---,0.00,VWS V14.01,2013-09-22 05:03:00,
2013-09-22 01:08:00,74.7,69.9,29.70,NW,307,0.0,6.0,85,0.00,,---,0.00,VWS V14.01,2013-09-22 05:08:00,
2013-09-22 01:13:00,74.7,69.9,29.70,North,351,0.0,7.0,85,0.00,,---,0.00,VWS V14.01,2013-09-22 05:13:00,
2013-09-22 01:18:00,74.7,69.9,29.70,NNW,344,5.0,7.0,85,0.00,,---,0.00,VWS V14.01,2013-09-22 05:18:00,
2013-09-22 01:23:00,74.7,69.9,29.70,NNE,13,0.0,7.0,85,0.00,,---,0.00,VWS V14.01,2013-09-22 05:23:00,
2013-09-22 01:28:00,74.6,70.1,29.70,NNW,348,3.0,7.0,86,0.00,,---,0.00,VWS V14.01,2013-09-22 05:28:00,
2013-09-22 01:30:00,74.5,70.0,29.70,North,5,0.0,7.0,86,0.00,,---,0.00,VWS V14.01,2013-09-22 05:30:00,
2013-09-22 01:33:00,74.0,69.9,29.70,North,5,3.0,3.0,87,0.04,,---,0.04,VWS V14.01,2013-09-22 05:33:00,
2013-09-22 01:38:00,73.4,70.0,29.70,NNE,13,0.0,5.0,89,0.09,,---,0.09,VWS V14.01,2013-09-22 05:38:00,
2013-09-22 01:43:00,73.0,69.9,29.70,North,5,1.0,5.0,90,0.12,,---,0.12,VWS V14.01,2013-09-22 05:43:00,
2013-09-22 01:48:00,72.5,69.7,29.70,NE,34,0.0,5.0,91,0.18,,---,0.18,VWS V14.01,2013-09-22 05:48:00,
2013-09-22 01:53:00,72.3,69.5,29.70,North,5,0.0,5.0,91,0.25,,---,0.25,VWS V14.01,2013-09-22 05:53:00,
2013-09-22 01:58:00,72.1,69.7,29.70,NNE,21,0.0,5.0,92,0.30,,---,0.30,VWS V14.01,2013-09-22 05:58:00,
2013-09-22 02:00:00,72.1,69.7,29.70,NNE,21,0.0,5.0,92,0.31,,---,0.31,VWS V14.01,2013-09-22 06:00:00,
2013-09-22 02:03:00,72.2,70.1,29.69,North,349,5.0,11.0,93,0.35,,---,0.35,VWS V14.01,2013-09-22 06:03:00,
2013-09-22 02:08:00,72.3,70.2,29.69,NNW,340,0.0,11.0,93,0.38,,---,0.38,VWS V14.01,2013-09-22 06:08:00,
2013-09-22 02:13:00,72.4,69.9,29.69,NNW,330,0.0,11.0,92,0.39,,---,0.39,VWS V14.01,2013-09-22 06:13:00,
2013-09-22 02:18:00,72.5,70.1,29.69,North,5,0.0,11.0,92,0.39,,---,0.39,VWS V14.01,2013-09-22 06:18:00,
2013-09-22 02:23:00,72.5,70.1,29.69,NNW,338,0.0,11.0,92,0.39,,---,0.39,VWS V14.01,2013-09-22 06:23:00,
2013-09-22 02:28:00,72.5,70.4,29.69,North,355,0.0,11.0,93,0.39,,---,0.39,VWS V14.01,2013-09-22 06:28:00,
2013-09-22 02:30:00,72.6,70.5,29.69,North,355,0.0,11.0,93,0.39,,---,0.39,VWS V14.01,2013-09-22 06:30:00,
2013-09-22 02:33:00,72.5,70.4,29.69,North,11,0.0,3.0,93,0.39,,---,0.39,VWS V14.01,2013-09-22 06:33:00,
2013-09-22 02:38:00,72.6,70.5,29.69,NW,323,0.0,5.0,93,0.39,,---,0.39,VWS V14.01,2013-09-22 06:38:00,
2013-09-22 02:43:00,72.6,70.5,29.69,NNW,340,0.0,5.0,93,0.39,,---,0.39,VWS V14.01,2013-09-22 06:43:00,
2013-09-22 02:48:00,72.6,70.5,29.69,NNW,344,0.0,5.0,93,0.39,,---,0.39,VWS V14.01,2013-09-22 06:48:00,
2013-09-22 02:53:00,72.7,70.6,29.68,NNW,344,0.0,5.0,93,0.39,,---,0.39,VWS V14.01,2013-09-22 06:53:00,
2013-09-22 02:58:00,72.7,70.6,29.68,NNW,340,0.0,5.0,93,0.39,,---,0.39,VWS V14.01,2013-09-22 06:58:00,
2013-09-22 03:00:00,72.7,70.6,29.68,NNW,340,0.0,5.0,93,0.39,,---,0.39,VWS V14.01,2013-09-22 07:00:00,
2013-09-22 03:03:00,72.7,70.6,29.68,NNW,337,0.0,4.0,93,0.08,,---,0.39,VWS V14.01,2013-09-22 07:03:00,
2013-09-22 03:08:00,72.6,70.5,29.68,NW,320,0.0,5.0,93,0.08,,---,0.39,VWS V14.01,2013-09-22 07:08:00,
2013-09-22 03:13:00,72.6,70.5,29.68,NNW,344,0.0,5.0,93,0.08,,---,0.39,VWS V14.01,2013-09-22 07:13:00,
2013-09-22 03:18:00,72.6,70.5,29.68,North,350,0.0,7.0,93,0.08,,---,0.39,VWS V14.01,2013-09-22 07:18:00,
2013-09-22 03:23:00,72.6,70.5,29.68,North,350,0.0,7.0,93,0.08,,---,0.39,VWS V14.01,2013-09-22 07:23:00,
2013-09-22 03:28:00,72.6,70.5,29.67,North,350,3.0,7.0,93,0.08,,---,0.39,VWS V14.01,2013-09-22 07:28:00,
2013-09-22 03:30:00,72.6,70.5,29.67,North,355,0.0,7.0,93,0.08,,---,0.39,VWS V14.01,2013-09-22 07:30:00,
2013-09-22 03:33:00,72.6,70.5,29.67,NNW,346,3.0,7.0,93,0.00,,---,0.39,VWS V14.01,2013-09-22 07:33:00,
2013-09-22 03:38:00,72.6,70.5,29.67,NNE,20,3.0,7.0,93,0.00,,---,0.39,VWS V14.01,2013-09-22 07:38:00,
2013-09-22 03:43:00,72.7,70.6,29.67,North,355,1.0,7.0,93,0.00,,---,0.39,VWS V14.01,2013-09-22 07:43:00,
2013-09-22 03:48:00,72.6,70.5,29.67,North,5,0.0,9.0,93,0.00,,---,0.39,VWS V14.01,2013-09-22 07:48:00,
2013-09-22 03:53:00,72.6,70.5,29.67,North,9,0.0,9.0,93,0.00,,---,0.39,VWS V14.01,2013-09-22 07:53:00,
2013-09-22 03:58:00,72.6,70.5,29.67,North,5,1.0,9.0,93,0.00,,---,0.39,VWS V14.01,2013-09-22 07:58:00,
2013-09-22 04:00:00,72.6,70.5,29.67,NNW,346,4.0,9.0,93,0.00,,---,0.39,VWS V14.01,2013-09-22 08:00:00,
2013-09-22 04:03:00,72.6,70.5,29.67,North,11,0.0,7.0,93,0.00,,---,0.39,VWS V14.01,2013-09-22 08:03:00,
2013-09-22 04:08:00,72.6,70.5,29.67,NNE,19,0.0,8.0,93,0.00,,---,0.39,VWS V14.01,2013-09-22 08:08:00,
2013-09-22 04:13:00,72.6,70.5,29.67,NNW,328,0.0,10.0,93,0.00,,---,0.39,VWS V14.01,2013-09-22 08:13:00,
2013-09-22 04:18:00,72.6,70.5,29.66,NNW,344,6.0,11.0,93,0.00,,---,0.39,VWS V14.01,2013-09-22 08:18:00,
2013-09-22 04:23:00,72.5,70.4,29.66,North,351,0.0,11.0,93,0.00,,---,0.39,VWS V14.01,2013-09-22 08:23:00,
2013-09-22 04:28:00,72.5,70.4,29.66,North,360,0.0,11.0,93,0.00,,---,0.39,VWS V14.01,2013-09-22 08:28:00,
2013-09-22 04:30:00,72.5,70.4,29.66,North,351,0.0,11.0,93,0.00,,---,0.39,VWS V14.01,2013-09-22 08:30:00,
2013-09-22 04:33:00,72.4,70.3,29.67,East,83,8.0,13.0,93,0.00,,---,0.39,VWS V14.01,2013-09-22 08:33:00,
2013-09-22 04:38:00,72.4,70.3,29.67,NE,38,0.0,13.0,93,0.00,,---,0.39,VWS V14.01,2013-09-22 08:38:00,
2013-09-22 04:44:00,72.4,70.3,29.67,NE,49,0.0,13.0,93,0.00,,---,0.39,VWS V14.01,2013-09-22 08:44:00,
2013-09-22 04:48:00,72.3,70.2,29.67,NNE,23,0.0,13.0,93,0.00,,---,0.39,VWS V14.01,2013-09-22 08:48:00,
2013-09-22 04:53:00,72.3,70.2,29.67,NNE,14,0.0,13.0,93,0.00,,---,0.39,VWS V14.01,2013-09-22 08:53:00,
2013-09-22 04:59:00,72.2,70.1,29.67,NNE,12,0.0,13.0,93,0.00,,---,0.39,VWS V14.01,2013-09-22 08:59:00,
2013-09-22 05:00:00,72.2,70.1,29.67,NNE,12,0.0,13.0,93,0.00,,---,0.39,VWS V14.01,2013-09-22 09:00:00,
2013-09-22 05:04:00,72.2,70.1,29.67,NNE,15,1.0,5.0,93,0.00,,---,0.39,VWS V14.01,2013-09-22 09:04:00,
2013-09-22 05:09:00,72.2,70.1,29.67,North,360,0.0,5.0,93,0.00,,---,0.39,VWS V14.01,2013-09-22 09:09:00,
2013-09-22 05:13:00,72.1,70.0,29.67,NE,38,0.0,6.0,93,0.00,,---,0.39,VWS V14.01,2013-09-22 09:13:00,
2013-09-22 05:18:00,72.1,70.0,29.67,North,360,0.0,6.0,93,0.00,,---,0.39,VWS V14.01,2013-09-22 09:18:00,
2013-09-22 05:24:00,72.1,70.0,29.67,NNE,28,0.0,6.0,93,0.00,,---,0.39,VWS V14.01,2013-09-22 09:24:00,
2013-09-22 05:29:00,72.0,69.6,29.67,ENE,64,0.0,6.0,92,0.00,,---,0.39,VWS V14.01,2013-09-22 09:29:00,
2013-09-22 05:30:00,72.0,69.6,29.67,ENE,64,0.0,6.0,92,0.00,,---,0.39,VWS V14.01,2013-09-22 09:30:00,
2013-09-22 05:34:00,71.9,69.4,29.67,North,9,0.0,6.0,92,0.00,,---,0.39,VWS V14.01,2013-09-22 09:34:00,
2013-09-22 05:39:00,71.9,69.4,29.68,NE,51,0.0,8.0,92,0.00,,---,0.39,VWS V14.01,2013-09-22 09:39:00,
2013-09-22 05:44:00,71.9,69.4,29.68,NNE,30,0.0,8.0,92,0.00,,---,0.39,VWS V14.01,2013-09-22 09:44:00,
2013-09-22 05:49:00,71.9,69.4,29.68,NE,52,1.0,8.0,92,0.00,,---,0.39,VWS V14.01,2013-09-22 09:49:00,
2013-09-22 05:54:00,71.5,69.1,29.69,NE,36,17.0,17.0,92,0.00,,---,0.39,VWS V14.01,2013-09-22 09:54:00,
2013-09-22 05:59:00,71.0,67.9,29.69,East,82,7.0,10.0,90,0.00,,---,0.39,VWS V14.01,2013-09-22 09:59:00,
2013-09-22 06:00:00,71.0,67.9,29.69,NE,51,8.0,17.0,90,0.00,,---,0.39,VWS V14.01,2013-09-22 10:00:00,
2013-09-22 06:04:00,70.6,67.2,29.70,NNE,32,6.0,14.0,89,0.00,,---,0.39,VWS V14.01,2013-09-22 10:04:00,
2013-09-22 06:09:00,70.1,66.7,29.70,NE,36,0.0,14.0,89,0.00,,---,0.39,VWS V14.01,2013-09-22 10:09:00,
2013-09-22 06:14:00,69.7,66.6,29.70,NE,38,5.0,14.0,90,0.00,,---,0.39,VWS V14.01,2013-09-22 10:14:00,
2013-09-22 06:19:00,69.4,66.3,29.70,NE,49,0.0,14.0,90,0.00,,---,0.39,VWS V14.01,2013-09-22 10:19:00,
2013-09-22 06:24:00,69.3,66.2,29.70,ENE,76,3.0,14.0,90,0.00,,---,0.39,VWS V14.01,2013-09-22 10:24:00,
2013-09-22 06:29:00,69.2,66.2,29.70,NE,43,6.0,14.0,90,0.00,,---,0.39,VWS V14.01,2013-09-22 10:29:00,
2013-09-22 06:30:00,69.2,66.2,29.70,NE,43,6.0,14.0,90,0.00,,---,0.39,VWS V14.01,2013-09-22 10:30:00,
2013-09-22 06:34:00,69.1,66.1,29.70,NNE,32,0.0,11.0,90,0.00,,---,0.39,VWS V14.01,2013-09-22 10:34:00,
2013-09-22 06:39:00,69.1,66.1,29.70,NE,56,0.0,13.0,90,0.00,,---,0.39,VWS V14.01,2013-09-22 10:39:00,
2013-09-22 06:44:00,69.0,65.9,29.71,East,80,1.0,13.0,90,0.00,,---,0.39,VWS V14.01,2013-09-22 10:44:00,
2013-09-22 06:49:00,68.9,65.8,29.71,East,80,1.0,13.0,90,0.00,,---,0.39,VWS V14.01,2013-09-22 10:49:00,
2013-09-22 06:54:00,68.8,65.8,29.71,ENE,71,0.0,13.0,90,0.00,,---,0.39,VWS V14.01,2013-09-22 10:54:00,
2013-09-22 06:59:00,68.5,65.1,29.71,ENE,74,1.0,4.0,89,0.00,,---,0.39,VWS V14.01,2013-09-22 10:59:00,
2013-09-22 07:00:00,68.5,65.1,29.71,ENE,69,1.0,13.0,89,0.00,,---,0.39,VWS V14.01,2013-09-22 11:00:00,
2013-09-22 07:04:00,68.3,64.9,29.71,East,86,0.0,14.0,89,0.00,,---,0.39,VWS V14.01,2013-09-22 11:04:00,
2013-09-22 07:09:00,68.1,64.7,29.72,East,92,5.0,14.0,89,0.00,,---,0.39,VWS V14.01,2013-09-22 11:09:00,
2013-09-22 07:14:00,67.9,64.5,29.72,ENE,72,3.0,14.0,89,0.00,,---,0.39,VWS V14.01,2013-09-22 11:14:00,
2013-09-22 07:19:00,67.9,64.5,29.72,ENE,73,5.0,14.0,89,0.00,,---,0.39,VWS V14.01,2013-09-22 11:19:00,
2013-09-22 07:24:00,67.8,64.4,29.72,ENE,59,0.0,14.0,89,0.00,,---,0.39,VWS V14.01,2013-09-22 11:24:00,
2013-09-22 07:29:00,67.7,64.3,29.72,NE,55,1.0,1.0,89,0.00,,---,0.39,VWS V14.01,2013-09-22 11:29:00,
2013-09-22 07:30:00,67.8,64.4,29.72,NE,53,0.0,14.0,89,0.00,,---,0.39,VWS V14.01,2013-09-22 11:30:00,
2013-09-22 07:34:00,67.7,64.3,29.72,NE,55,0.0,7.0,89,0.00,,---,0.39,VWS V14.01,2013-09-22 11:34:00,
2013-09-22 07:39:00,67.6,64.2,29.72,East,88,5.0,11.0,89,0.00,,---,0.39,VWS V14.01,2013-09-22 11:39:00,
2013-09-22 07:44:00,67.5,64.2,29.72,ENE,75,0.0,11.0,89,0.00,,---,0.39,VWS V14.01,2013-09-22 11:44:00,
2013-09-22 07:49:00,67.4,64.1,29.73,ENE,69,9.0,15.0,89,0.00,,---,0.39,VWS V14.01,2013-09-22 11:49:00,
2013-09-22 07:54:00,67.4,64.1,29.73,East,85,0.0,15.0,89,0.00,,---,0.39,VWS V14.01,2013-09-22 11:54:00,
2013-09-22 07:59:00,67.2,63.8,29.73,ENE,74,9.0,9.0,89,0.00,,---,0.39,VWS V14.01,2013-09-22 11:59:00,
2013-09-22 08:00:00,67.2,63.8,29.73,ESE,102,0.0,15.0,89,0.00,,---,0.39,VWS V14.01,2013-09-22 12:00:00,
2013-09-22 08:04:00,67.1,63.8,29.73,East,80,0.0,12.0,89,0.00,,---,0.39,VWS V14.01,2013-09-22 12:04:00,
2013-09-22 08:09:00,67.0,63.7,29.73,ENE,57,8.0,12.0,89,0.00,,---,0.39,VWS V14.01,2013-09-22 12:09:00,
2013-09-22 08:14:00,66.8,63.5,29.73,ESE,112,0.0,13.0,89,0.00,,---,0.39,VWS V14.01,2013-09-22 12:14:00,
2013-09-22 08:19:00,66.8,63.5,29.73,East,96,0.0,13.0,89,0.00,,---,0.39,VWS V14.01,2013-09-22 12:19:00,
2013-09-22 08:24:00,66.7,63.7,29.73,ESE,113,0.0,13.0,90,0.00,,---,0.39,VWS V14.01,2013-09-22 12:24:00,
2013-09-22 08:29:00,66.7,63.4,29.73,SE,135,0.0,1.0,89,0.00,,---,0.39,VWS V14.01,2013-09-22 12:29:00,
2013-09-22 08:30:00,66.7,63.4,29.73,East,80,0.0,13.0,89,0.00,,---,0.39,VWS V14.01,2013-09-22 12:30:00,
2013-09-22 08:34:00,66.6,63.3,29.73,SE,143,0.0,10.0,89,0.00,,---,0.39,VWS V14.01,2013-09-22 12:34:00,
2013-09-22 08:39:00,66.7,63.4,29.74,SSW,209,0.0,10.0,89,0.00,,---,0.39,VWS V14.01,2013-09-22 12:39:00,
2013-09-22 08:44:00,66.9,63.6,29.74,East,98,0.0,10.0,89,0.00,,---,0.39,VWS V14.01,2013-09-22 12:44:00,
2013-09-22 08:49:00,67.1,63.8,29.74,ENE,59,0.0,10.0,89,0.00,,---,0.39,VWS V14.01,2013-09-22 12:49:00,
2013-09-22 08:54:00,67.2,63.5,29.74,East,93,0.0,10.0,88,0.00,,---,0.39,VWS V14.01,2013-09-22 12:54:00,
2013-09-22 08:59:00,67.2,63.5,29.74,NE,47,0.0,1.0,88,0.00,,---,0.39,VWS V14.01,2013-09-22 12:59:00,
2013-09-22 09:00:00,67.2,63.5,29.74,East,94,1.0,10.0,88,0.00,,---,0.39,VWS V14.01,2013-09-22 13:00:00,
2013-09-22 09:04:00,67.2,63.5,29.74,East,96,1.0,8.0,88,0.00,,---,0.39,VWS V14.01,2013-09-22 13:04:00,
2013-09-22 09:09:00,67.3,63.6,29.74,ESE,120,0.0,8.0,88,0.00,,---,0.39,VWS V14.01,2013-09-22 13:09:00,
2013-09-22 09:14:00,67.4,63.7,29.74,ESE,115,0.0,8.0,88,0.00,,---,0.39,VWS V14.01,2013-09-22 13:14:00,
2013-09-22 09:19:00,67.5,63.8,29.75,ESE,117,0.0,8.0,88,0.00,,---,0.39,VWS V14.01,2013-09-22 13:19:00,
2013-09-22 09:24:00,67.5,63.8,29.75,ESE,113,1.0,11.0,88,0.00,,---,0.39,VWS V14.01,2013-09-22 13:24:00,
2013-09-22 09:29:00,67.6,63.6,29.75,East,89,0.0,5.0,87,0.00,,---,0.39,VWS V14.01,2013-09-22 13:29:00,
2013-09-22 09:30:00,67.6,63.6,29.75,SE,140,4.0,11.0,87,0.00,,---,0.39,VWS V14.01,2013-09-22 13:30:00,
2013-09-22 09:35:00,67.6,63.9,29.75,SSE,156,0.0,9.0,88,0.00,,---,0.39,VWS V14.01,2013-09-22 13:35:00,
2013-09-22 09:40:00,67.7,63.7,29.75,SE,124,3.0,9.0,87,0.00,,---,0.39,VWS V14.01,2013-09-22 13:40:00,
2013-09-22 09:45:00,67.9,63.9,29.75,SE,140,0.0,9.0,87,0.00,,---,0.39,VWS V14.01,2013-09-22 13:45:00,
2013-09-22 09:50:00,68.1,64.1,29.75,ESE,107,0.0,9.0,87,0.00,,---,0.39,VWS V14.01,2013-09-22 13:50:00,
2013-09-22 09:55:00,68.3,64.3,29.75,ESE,107,0.0,9.0,87,0.00,,---,0.39,VWS V14.01,2013-09-22 13:55:00,
2013-09-22 10:00:00,68.4,64.1,29.75,SE,132,5.0,6.0,86,0.00,,---,0.39,VWS V14.01,2013-09-22 14:00:00,
2013-09-22 10:05:00,68.6,64.6,29.76,ESE,105,0.0,6.0,87,0.00,,---,0.39,VWS V14.01,2013-09-22 14:05:00,
2013-09-22 10:10:00,68.9,64.6,29.76,ESE,104,0.0,10.0,86,0.00,,---,0.39,VWS V14.01,2013-09-22 14:10:00,
2013-09-22 10:15:00,68.9,64.6,29.76,SE,129,0.0,10.0,86,0.00,,---,0.39,VWS V14.01,2013-09-22 14:15:00,
2013-09-22 10:20:00,69.1,64.7,29.76,ENE,76,2.0,10.0,86,0.00,,---,0.39,VWS V14.01,2013-09-22 14:20:00,
2013-09-22 10:25:00,69.4,64.7,29.76,SSE,151,0.0,13.0,85,0.00,,---,0.39,VWS V14.01,2013-09-22 14:25:00,
2013-09-22 10:30:00,69.5,64.8,29.76,SE,140,5.0,8.0,85,0.00,,---,0.39,VWS V14.01,2013-09-22 14:30:00,
2013-09-22 10:35:00,69.4,64.7,29.76,SE,136,3.0,11.0,85,0.00,,---,0.39,VWS V14.01,2013-09-22 14:35:00,
2013-09-22 10:40:00,69.5,64.8,29.76,SSW,192,7.0,11.0,85,0.00,,---,0.39,VWS V14.01,2013-09-22 14:40:00,
2013-09-22 10:45:00,69.8,65.1,29.76,South,172,7.0,11.0,85,0.00,,---,0.39,VWS V14.01,2013-09-22 14:45:00,
2013-09-22 10:50:00,70.1,65.4,29.76,SSE,148,5.0,11.0,85,0.00,,---,0.39,VWS V14.01,2013-09-22 14:50:00,
2013-09-22 10:55:00,70.4,65.3,29.76,East,101,0.0,11.0,84,0.00,,---,0.39,VWS V14.01,2013-09-22 14:55:00,
2013-09-22 11:00:00,70.6,65.2,29.77,East,90,1.0,13.0,83,0.00,,---,0.39,VWS V14.01,2013-09-22 15:00:00,
2013-09-22 11:05:00,70.6,65.5,29.76,ESE,122,0.0,13.0,84,0.00,,---,0.39,VWS V14.01,2013-09-22 15:05:00,
2013-09-22 11:10:00,70.7,65.3,29.76,ESE,122,0.0,15.0,83,0.00,,---,0.39,VWS V14.01,2013-09-22 15:10:00,
2013-09-22 11:15:00,70.8,65.4,29.76,South,173,4.0,15.0,83,0.00,,---,0.39,VWS V14.01,2013-09-22 15:15:00,
2013-09-22 11:20:00,70.8,65.7,29.76,South,183,0.0,15.0,84,0.00,,---,0.39,VWS V14.01,2013-09-22 15:20:00,
2013-09-22 11:25:00,71.2,65.8,29.76,SSE,168,4.0,15.0,83,0.00,,---,0.39,VWS V14.01,2013-09-22 15:25:00,
2013-09-22 11:30:00,71.8,66.4,29.76,SE,142,6.0,6.0,83,0.00,,---,0.39,VWS V14.01,2013-09-22 15:30:00,
2013-09-22 11:35:00,72.1,65.9,29.76,SE,128,6.0,11.0,81,0.00,,---,0.39,VWS V14.01,2013-09-22 15:35:00,
2013-09-22 11:40:00,72.4,66.6,29.76,ESE,110,7.0,11.0,82,0.00,,---,0.39,VWS V14.01,2013-09-22 15:40:00,
2013-09-22 11:45:00,72.2,66.1,29.76,ENE,65,2.0,17.0,81,0.00,,---,0.39,VWS V14.01,2013-09-22 15:45:00,
2013-09-22 11:50:00,72.2,66.1,29.76,SE,141,6.0,17.0,81,0.00,,---,0.39,VWS V14.01,2013-09-22 15:50:00,
2013-09-22 11:55:00,72.3,66.2,29.76,ESE,123,4.0,17.0,81,0.00,,---,0.39,VWS V14.01,2013-09-22 15:55:00,
2013-09-22 12:00:00,72.2,65.7,29.76,ESE,105,4.0,13.0,80,0.00,,---,0.39,VWS V14.01,2013-09-22 16:00:00,
2013-09-22 12:05:00,71.7,65.6,29.76,SSE,165,6.0,13.0,81,0.00,,---,0.39,VWS V14.01,2013-09-22 16:05:00,
2013-09-22 12:10:00,71.5,65.7,29.77,SSE,151,4.0,13.0,82,0.00,,---,0.39,VWS V14.01,2013-09-22 16:10:00,
2013-09-22 12:15:00,71.4,65.6,29.77,East,101,0.0,13.0,82,0.00,,---,0.39,VWS V14.01,2013-09-22 16:15:00,
2013-09-22 12:20:00,71.3,65.5,29.77,ESE,121,2.0,13.0,82,0.00,,---,0.39,VWS V14.01,2013-09-22 16:20:00,
2013-09-22 12:25:00,71.2,65.4,29.77,ESE,122,3.0,13.0,82,0.00,,---,0.39,VWS V14.01,2013-09-22 16:25:00,
2013-09-22 12:30:00,71.3,65.5,29.77,South,177,1.0,8.0,82,0.00,,---,0.39,VWS V14.01,2013-09-22 16:30:00,
2013-09-22 12:35:00,70.8,65.4,29.78,SE,139,0.0,13.0,83,0.00,,---,0.39,VWS V14.01,2013-09-22 16:35:00,
2013-09-22 12:40:00,70.8,65.4,29.77,ESE,105,0.0,13.0,83,0.00,,---,0.39,VWS V14.01,2013-09-22 16:40:00,
2013-09-22 12:46:00,70.7,65.3,29.77,East,84,1.0,13.0,83,0.00,,---,0.39,VWS V14.01,2013-09-22 16:46:00,
2013-09-22 12:51:00,70.7,65.6,29.77,ESE,121,5.0,13.0,84,0.00,,---,0.39,VWS V14.01,2013-09-22 16:51:00,
2013-09-22 12:56:00,70.7,65.3,29.78,ESE,106,0.0,13.0,83,0.00,,---,0.39,VWS V14.01,2013-09-22 16:56:00,
2013-09-22 13:00:00,70.5,65.1,29.78,ENE,67,0.0,13.0,83,0.00,,---,0.39,VWS V14.01,2013-09-22 17:00:00,
2013-09-22 13:01:00,70.5,65.4,29.78,SE,124,0.0,7.0,84,0.00,,---,0.39,VWS V14.01,2013-09-22 17:01:00,
2013-09-22 13:06:00,70.4,65.3,29.78,SE,132,0.0,7.0,84,0.00,,---,0.39,VWS V14.01,2013-09-22 17:06:00,
2013-09-22 13:11:00,70.3,65.2,29.78,SSE,148,0.0,7.0,84,0.00,,---,0.39,VWS V14.01,2013-09-22 17:11:00,
2013-09-22 13:16:00,70.4,65.3,29.78,SSE,161,4.0,11.0,84,0.00,,---,0.39,VWS V14.01,2013-09-22 17:16:00,
2013-09-22 13:21:00,70.5,65.4,29.77,SSE,151,0.0,11.0,84,0.00,,---,0.39,VWS V14.01,2013-09-22 17:21:00,
2013-09-22 13:26:00,70.4,65.3,29.78,ESE,112,0.0,11.0,84,0.00,,---,0.39,VWS V14.01,2013-09-22 17:26:00,
2013-09-22 13:30:00,70.5,65.8,29.78,SSE,148,0.0,11.0,85,0.00,,---,0.39,VWS V14.01,2013-09-22 17:30:00,
2013-09-22 13:31:00,70.6,65.9,29.78,SSE,149,0.0,0.0,85,0.00,,---,0.39,VWS V14.01,2013-09-22 17:31:00,
2013-09-22 13:36:00,70.7,65.6,29.77,East,96,2.0,4.0,84,0.00,,---,0.39,VWS V14.01,2013-09-22 17:36:00,
2013-09-22 13:41:00,71.0,65.9,29.77,SSE,156,0.0,4.0,84,0.00,,---,0.39,VWS V14.01,2013-09-22 17:41:00,
2013-09-22 13:46:00,71.4,66.3,29.77,ESE,105,0.0,4.0,84,0.00,,---,0.39,VWS V14.01,2013-09-22 17:46:00,
2013-09-22 13:51:00,71.8,66.4,29.77,South,185,0.0,5.0,83,0.00,,---,0.39,VWS V14.01,2013-09-22 17:51:00,
2013-09-22 13:56:00,72.0,66.2,29.77,East,92,1.0,5.0,82,0.00,,---,0.39,VWS V14.01,2013-09-22 17:56:00,
2013-09-22 14:00:00,72.1,66.3,29.77,East,90,0.0,5.0,82,0.00,,---,0.39,VWS V14.01,2013-09-22 18:00:00,
2013-09-22 14:01:00,72.3,66.5,29.77,East,86,0.0,4.0,82,0.00,,---,0.39,VWS V14.01,2013-09-22 18:01:00,
2013-09-22 14:06:00,72.4,66.6,29.76,East,85,0.0,6.0,82,0.00,,---,0.39,VWS V14.01,2013-09-22 18:06:00,
2013-09-22 14:11:00,72.5,66.3,29.76,ESE,103,0.0,6.0,81,0.00,,---,0.39,VWS V14.01,2013-09-22 18:11:00,
2013-09-22 14:16:00,72.9,66.7,29.76,South,183,0.0,6.0,81,0.00,,---,0.39,VWS V14.01,2013-09-22 18:16:00,
2013-09-22 14:21:00,73.2,66.7,29.76,SE,131,0.0,6.0,80,0.00,,---,0.39,VWS V14.01,2013-09-22 18:21:00,
2013-09-22 14:26:00,73.3,66.8,29.75,SE,124,0.0,8.0,80,0.00,,---,0.39,VWS V14.01,2013-09-22 18:26:00,
2013-09-22 14:30:00,73.3,66.8,29.75,SE,124,0.0,8.0,80,0.00,,---,0.39,VWS V14.01,2013-09-22 18:30:00,
2013-09-22 14:31:00,73.3,66.8,29.76,South,183,0.0,3.0,80,0.00,,---,0.39,VWS V14.01,2013-09-22 18:31:00,
2013-09-22 14:36:00,73.3,66.8,29.76,ESE,109,0.0,3.0,80,0.00,,---,0.39,VWS V14.01,2013-09-22 18:36:00,
2013-09-22 14:41:00,73.2,67.0,29.75,South,188,0.0,3.0,81,0.00,,---,0.39,VWS V14.01,2013-09-22 18:41:00,
2013-09-22 14:46:00,73.3,67.1,29.75,ESE,121,0.0,7.0,81,0.00,,---,0.39,VWS V14.01,2013-09-22 18:46:00,
2013-09-22 14:51:00,73.3,67.1,29.75,ENE,65,0.0,7.0,81,0.00,,---,0.39,VWS V14.01,2013-09-22 18:51:00,
2013-09-22 14:56:00,73.3,67.1,29.75,ESE,121,4.0,7.0,81,0.00,,---,0.39,VWS V14.01,2013-09-22 18:56:00,
2013-09-22 15:00:00,73.3,67.1,29.75,SE,132,0.0,7.0,81,0.00,,---,0.39,VWS V14.01,2013-09-22 19:00:00,
2013-09-22 15:01:00,73.4,67.2,29.75,East,91,0.0,4.0,81,0.00,,---,0.39,VWS V14.01,2013-09-22 19:01:00,
2013-09-22 15:06:00,73.4,66.9,29.75,South,178,1.0,8.0,80,0.00,,---,0.39,VWS V14.01,2013-09-22 19:06:00,
2013-09-22 15:11:00,73.7,67.2,29.75,ESE,117,1.0,8.0,80,0.00,,---,0.39,VWS V14.01,2013-09-22 19:11:00,
2013-09-22 15:16:00,73.9,67.0,29.75,SSE,167,0.0,8.0,79,0.00,,---,0.39,VWS V14.01,2013-09-22 19:16:00,
2013-09-22 15:21:00,74.2,66.9,29.75,SE,144,5.0,8.0,78,0.00,,---,0.39,VWS V14.01,2013-09-22 19:21:00,
2013-09-22 15:26:00,74.6,67.3,29.75,ENE,62,1.0,8.0,78,0.00,,---,0.39,VWS V14.01,2013-09-22 19:26:00,
2013-09-22 15:30:00,74.7,67.4,29.75,SE,125,0.0,8.0,78,0.00,,---,0.39,VWS V14.01,2013-09-22 19:30:00,
2013-09-22 15:31:00,74.9,67.6,29.75,East,82,0.0,5.0,78,0.00,,---,0.39,VWS V14.01,2013-09-22 19:31:00,
2013-09-22 15:37:00,75.4,67.7,29.76,ESE,103,3.0,6.0,77,0.00,,---,0.39,VWS V14.01,2013-09-22 19:37:00,
2013-09-22 15:42:00,75.6,67.5,29.75,SSE,155,0.0,6.0,76,0.00,,---,0.39,VWS V14.01,2013-09-22 19:42:00,
2013-09-22 15:47:00,75.6,67.1,29.75,SE,132,3.0,7.0,75,0.00,,---,0.39,VWS V14.01,2013-09-22 19:47:00,
2013-09-22 15:52:00,75.6,67.5,29.76,SE,135,0.0,7.0,76,0.00,,---,0.39,VWS V14.01,2013-09-22 19:52:00,
2013-09-22 15:57:00,75.7,67.6,29.76,East,98,0.0,7.0,76,0.00,,---,0.39,VWS V14.01,2013-09-22 19:57:00,
2013-09-22 16:00:00,75.8,67.3,29.76,ESE,121,0.0,7.0,75,0.00,,---,0.39,VWS V14.01,2013-09-22 20:00:00,
2013-09-22 16:02:00,75.7,67.6,29.76,ESE,117,0.0,6.0,76,0.00,,---,0.39,VWS V14.01,2013-09-22 20:02:00,
2013-09-22 16:07:00,75.5,67.4,29.76,SSW,195,0.0,6.0,76,0.00,,---,0.39,VWS V14.01,2013-09-22 20:07:00,
2013-09-22 16:12:00,75.7,67.2,29.76,East,95,0.0,6.0,75,0.00,,---,0.39,VWS V14.01,2013-09-22 20:12:00,
2013-09-22 16:17:00,75.9,67.4,29.76,SE,130,0.0,6.0,75,0.00,,---,0.39,VWS V14.01,2013-09-22 20:17:00,
2013-09-22 16:22:00,76.0,67.9,29.76,East,90,0.0,6.0,76,0.00,,---,0.39,VWS V14.01,2013-09-22 20:22:00,
2013-09-22 16:27:00,75.8,67.7,29.76,SE,134,0.0,8.0,76,0.00,,---,0.39,VWS V14.01,2013-09-22 20:27:00,
2013-09-22 16:30:00,75.8,67.7,29.76,SSE,165,0.0,8.0,76,0.00,,---,0.39,VWS V14.01,2013-09-22 20:30:00,
2013-09-22 16:32:00,75.6,67.5,29.76,ENE,67,0.0,3.0,76,0.00,,---,0.39,VWS V14.01,2013-09-22 20:32:00,
2013-09-22 16:37:00,75.4,67.3,29.76,ESE,122,0.0,8.0,76,0.00,,---,0.39,VWS V14.01,2013-09-22 20:37:00,
2013-09-22 16:42:00,75.2,67.5,29.76,SE,131,0.0,8.0,77,0.00,,---,0.39,VWS V14.01,2013-09-22 20:42:00,
2013-09-22 16:47:00,75.1,67.0,29.76,SSE,154,0.0,8.0,76,0.00,,---,0.39,VWS V14.01,2013-09-22 20:47:00,
2013-09-22 16:52:00,75.1,67.4,29.76,East,96,0.0,8.0,77,0.00,,---,0.39,VWS V14.01,2013-09-22 20:52:00,
2013-09-22 16:57:00,75.1,67.0,29.76,SSE,163,0.0,8.0,76,0.00,,---,0.39,VWS V14.01,2013-09-22 20:57:00,
2013-09-22 17:00:00,75.2,67.1,29.76,SSE,163,0.0,8.0,76,0.00,,---,0.39,VWS V14.01,2013-09-22 21:00:00,
2013-09-22 17:02:00,75.2,67.1,29.76,South,175,3.0,6.0,76,0.00,,---,0.39,VWS V14.01,2013-09-22 21:02:00,
2013-09-22 17:07:00,75.2,67.1,29.76,ESE,104,0.0,7.0,76,0.00,,---,0.39,VWS V14.01,2013-09-22 21:07:00,
2013-09-22 17:12:00,75.2,67.5,29.76,East,100,0.0,7.0,77,0.00,,---,0.39,VWS V14.01,2013-09-22 21:12:00,
2013-09-22 17:18:00,75.2,67.1,29.76,South,188,0.0,7.0,76,0.00,,---,0.39,VWS V14.01,2013-09-22 21:18:00,
2013-09-22 17:23:00,75.2,67.1,29.77,ESE,122,0.0,7.0,76,0.00,,---,0.39,VWS V14.01,2013-09-22 21:23:00,
2013-09-22 17:28:00,75.3,67.6,29.77,ESE,122,0.0,7.0,77,0.00,,---,0.39,VWS V14.01,2013-09-22 21:28:00,
2013-09-22 17:30:00,75.3,67.6,29.77,ESE,122,0.0,7.0,77,0.00,,---,0.39,VWS V14.01,2013-09-22 21:30:00,
2013-09-22 17:33:00,75.3,67.2,29.77,ESE,107,0.0,5.0,76,0.00,,---,0.39,VWS V14.01,2013-09-22 21:33:00,
2013-09-22 17:38:00,75.3,67.2,29.77,South,172,0.0,8.0,76,0.00,,---,0.39,VWS V14.01,2013-09-22 21:38:00,
2013-09-22 17:43:00,75.3,67.6,29.77,East,94,0.0,8.0,77,0.00,,---,0.39,VWS V14.01,2013-09-22 21:43:00,
2013-09-22 17:48:00,75.2,67.5,29.77,SSE,165,0.0,8.0,77,0.00,,---,0.39,VWS V14.01,2013-09-22 21:48:00,
2013-09-22 17:53:00,75.1,67.8,29.77,East,101,0.0,8.0,78,0.00,,---,0.39,VWS V14.01,2013-09-22 21:53:00,
2013-09-22 17:58:00,75.1,67.8,29.77,SSE,148,0.0,8.0,78,0.00,,---,0.39,VWS V14.01,2013-09-22 21:58:00,
2013-09-22 18:00:00,75.0,67.7,29.77,SE,145,0.0,8.0,78,0.00,,---,0.39,VWS V14.01,2013-09-22 22:00:00,
2013-09-22 18:03:00,74.8,67.5,29.77,ESE,105,0.0,5.0,78,0.00,,---,0.39,VWS V14.01,2013-09-22 22:03:00,
2013-09-22 18:08:00,74.8,67.5,29.77,ESE,116,0.0,5.0,78,0.00,,---,0.39,VWS V14.01,2013-09-22 22:08:00,
2013-09-22 18:13:00,74.7,67.4,29.78,ESE,121,0.0,5.0,78,0.00,,---,0.39,VWS V14.01,2013-09-22 22:13:00,
2013-09-22 18:18:00,74.8,67.5,29.77,East,88,0.0,5.0,78,0.00,,---,0.39,VWS V14.01,2013-09-22 22:18:00,
2013-09-22 18:23:00,74.8,67.5,29.78,SE,134,0.0,5.0,78,0.00,,---,0.39,VWS V14.01,2013-09-22 22:23:00,
2013-09-22 18:28:00,74.7,67.0,29.78,SE,142,3.0,6.0,77,0.00,,---,0.39,VWS V14.01,2013-09-22 22:28:00,
2013-09-22 18:30:00,74.7,67.0,29.78,SE,139,0.0,6.0,77,0.00,,---,0.39,VWS V14.01,2013-09-22 22:30:00,
2013-09-22 18:33:00,74.6,66.5,29.78,ESE,119,0.0,4.0,76,0.00,,---,0.39,VWS V14.01,2013-09-22 22:33:00,
2013-09-22 18:38:00,74.6,66.5,29.78,ESE,123,0.0,4.0,76,0.00,,---,0.39,VWS V14.01,2013-09-22 22:38:00,
2013-09-22 18:43:00,74.5,66.8,29.78,ESE,108,0.0,4.0,77,0.00,,---,0.39,VWS V14.01,2013-09-22 22:43:00,
2013-09-22 18:48:00,74.4,66.7,29.78,East,96,0.0,4.0,77,0.00,,---,0.39,VWS V14.01,2013-09-22 22:48:00,
2013-09-22 18:53:00,74.4,66.7,29.79,East,96,0.0,4.0,77,0.00,,---,0.39,VWS V14.01,2013-09-22 22:53:00,
2013-09-22 18:58:00,74.4,66.7,29.79,East,96,0.0,4.0,77,0.00,,---,0.39,VWS V14.01,2013-09-22 22:58:00,
2013-09-22 19:00:00,74.4,66.7,29.79,East,96,0.0,4.0,77,0.00,,---,0.39,VWS V14.01,2013-09-22 23:00:00,
2013-09-22 19:03:00,74.3,67.0,29.79,East,96,0.0,1.0,78,0.00,,---,0.39,VWS V14.01,2013-09-22 23:03:00,
2013-09-22 19:09:00,74.2,66.9,29.79,East,96,0.0,1.0,78,0.00,,---,0.39,VWS V14.01,2013-09-22 23:09:00,
2013-09-22 19:14:00,74.2,66.9,29.79,East,96,0.0,1.0,78,0.00,,---,0.39,VWS V14.01,2013-09-22 23:14:00,
2013-09-22 19:19:00,74.1,66.8,29.79,East,96,0.0,1.0,78,0.00,,---,0.39,VWS V14.01,2013-09-22 23:19:00,
2013-09-22 19:24:00,74.0,67.1,29.80,East,96,0.0,1.0,79,0.00,,---,0.39,VWS V14.01,2013-09-22 23:24:00,
2013-09-22 19:29:00,73.8,67.2,29.80,East,96,0.0,1.0,80,0.00,,---,0.39,VWS V14.01,2013-09-22 23:29:00,
2013-09-22 19:30:00,73.8,67.2,29.80,East,96,0.0,1.0,80,0.00,,---,0.39,VWS V14.01,2013-09-22 23:30:00,
2013-09-22 19:34:00,73.7,67.2,29.80,East,96,0.0,0.0,80,0.00,,---,0.39,VWS V14.01,2013-09-22 23:34:00,
2013-09-22 19:39:00,73.5,67.0,29.80,East,96,0.0,0.0,80,0.00,,---,0.39,VWS V14.01,2013-09-22 23:39:00,
2013-09-22 19:44:00,73.4,66.9,29.80,East,96,0.0,0.0,80,0.00,,---,0.39,VWS V14.01,2013-09-22 23:44:00,
2013-09-22 19:49:00,73.3,66.8,29.80,ESE,122,0.0,3.0,80,0.00,,---,0.39,VWS V14.01,2013-09-22 23:49:00,
2013-09-22 19:54:00,73.2,66.7,29.80,ESE,122,0.0,3.0,80,0.00,,---,0.39,VWS V14.01,2013-09-22 23:54:00,
2013-09-22 19:59:00,73.1,66.6,29.80,ESE,122,0.0,0.0,80,0.00,,---,0.39,VWS V14.01,2013-09-22 23:59:00,
2013-09-22 20:00:00,73.1,66.6,29.80,ESE,122,0.0,3.0,80,0.00,,---,0.39,VWS V14.01,2013-09-23 00:00:00,
2013-09-22 20:04:00,73.0,66.5,29.80,ESE,122,0.0,0.0,80,0.00,,---,0.39,VWS V14.01,2013-09-23 00:04:00,
2013-09-22 20:09:00,72.9,66.7,29.80,ESE,122,0.0,0.0,81,0.00,,---,0.39,VWS V14.01,2013-09-23 00:09:00,
2013-09-22 20:14:00,72.7,66.5,29.81,ESE,122,0.0,0.0,81,0.00,,---,0.39,VWS V14.01,2013-09-23 00:14:00,
2013-09-22 20:19:00,72.5,66.3,29.81,ESE,122,0.0,1.0,81,0.00,,---,0.39,VWS V14.01,2013-09-23 00:19:00,
2013-09-22 20:24:00,72.4,66.2,29.81,ESE,122,0.0,1.0,81,0.00,,---,0.39,VWS V14.01,2013-09-23 00:24:00,
2013-09-22 20:29:00,72.3,66.5,29.82,ESE,122,0.0,0.0,82,0.00,,---,0.39,VWS V14.01,2013-09-23 00:29:00,
2013-09-22 20:30:00,72.3,66.5,29.81,ESE,122,0.0,1.0,82,0.00,,---,0.39,VWS V14.01,2013-09-23 00:30:00,
2013-09-22 20:34:00,72.1,66.3,29.82,ESE,121,0.0,0.0,82,0.00,,---,0.39,VWS V14.01,2013-09-23 00:34:00,
2013-09-22 20:39:00,71.9,66.5,29.82,ESE,121,0.0,0.0,83,0.00,,---,0.39,VWS V14.01,2013-09-23 00:39:00,
2013-09-22 20:44:00,71.6,66.5,29.83,ESE,121,0.0,0.0,84,0.00,,---,0.39,VWS V14.01,2013-09-23 00:44:00,
2013-09-22 20:49:00,71.3,66.2,29.83,ESE,121,0.0,0.0,84,0.00,,---,0.39,VWS V14.01,2013-09-23 00:49:00,
2013-09-22 20:54:00,70.8,66.1,29.83,ESE,121,0.0,0.0,85,0.00,,---,0.39,VWS V14.01,2013-09-23 00:54:00,
2013-09-22 20:59:00,70.4,66.0,29.83,ESE,121,0.0,0.0,86,0.00,,---,0.39,VWS V14.01,2013-09-23 00:59:00,
2013-09-22 21:00:00,70.4,66.0,29.83,ESE,121,0.0,0.0,86,0.00,,---,0.39,VWS V14.01,2013-09-23 01:00:00,
2013-09-22 21:04:00,70.0,66.0,29.84,ESE,121,0.0,0.0,87,0.00,,---,0.39,VWS V14.01,2013-09-23 01:04:00,
2013-09-22 21:09:00,69.8,65.8,29.84,ESE,121,0.0,0.0,87,0.00,,---,0.39,VWS V14.01,2013-09-23 01:09:00,
2013-09-22 21:14:00,69.5,65.8,29.84,ESE,121,0.0,0.0,88,0.00,,---,0.39,VWS V14.01,2013-09-23 01:14:00,
2013-09-22 21:19:00,69.3,65.6,29.84,ESE,121,0.0,0.0,88,0.00,,---,0.39,VWS V14.01,2013-09-23 01:19:00,
2013-09-22 21:24:00,69.1,65.7,29.84,ESE,121,0.0,0.0,89,0.00,,---,0.39,VWS V14.01,2013-09-23 01:24:00,
2013-09-22 21:29:00,68.9,65.5,29.84,ESE,121,0.0,0.0,89,0.00,,---,0.39,VWS V14.01,2013-09-23 01:29:00,
2013-09-22 21:30:00,68.9,65.5,29.84,ESE,121,0.0,1.0,89,0.00,,---,0.39,VWS V14.01,2013-09-23 01:30:00,
2013-09-22 21:34:00,68.7,65.3,29.84,ESE,121,0.0,0.0,89,0.00,,---,0.39,VWS V14.01,2013-09-23 01:34:00,
2013-09-22 21:39:00,68.5,65.1,29.84,ESE,121,0.0,0.0,89,0.00,,---,0.39,VWS V14.01,2013-09-23 01:39:00,
2013-09-22 21:44:00,68.3,64.9,29.85,ESE,121,0.0,0.0,89,0.00,,---,0.39,VWS V14.01,2013-09-23 01:44:00,
2013-09-22 21:49:00,68.1,64.7,29.85,ESE,121,0.0,0.0,89,0.00,,---,0.39,VWS V14.01,2013-09-23 01:49:00,
2013-09-22 21:54:00,67.9,64.9,29.85,ESE,121,0.0,0.0,90,0.00,,---,0.39,VWS V14.01,2013-09-23 01:54:00,
2013-09-22 21:59:00,67.7,64.7,29.86,ESE,121,0.0,0.0,90,0.00,,---,0.39,VWS V14.01,2013-09-23 01:59:00,
2013-09-22 22:00:00,67.7,64.7,29.85,ESE,121,0.0,0.0,90,0.00,,---,0.39,VWS V14.01,2013-09-23 02:00:00,
2013-09-22 22:04:00,67.6,64.9,29.86,ESE,121,0.0,0.0,91,0.00,,---,0.39,VWS V14.01,2013-09-23 02:04:00,
2013-09-22 22:09:00,67.5,64.8,29.85,ESE,121,0.0,0.0,91,0.00,,---,0.39,VWS V14.01,2013-09-23 02:09:00,
2013-09-22 22:15:00,67.4,64.7,29.85,ESE,121,0.0,0.0,91,0.00,,---,0.39,VWS V14.01,2013-09-23 02:15:00,
2013-09-22 22:20:00,67.2,64.5,29.85,ESE,121,0.0,0.0,91,0.00,,---,0.39,VWS V14.01,2013-09-23 02:20:00,
2013-09-22 22:25:00,67.0,64.3,29.86,ESE,121,0.0,0.0,91,0.00,,---,0.39,VWS V14.01,2013-09-23 02:25:00,
2013-09-22 22:30:00,66.8,64.1,29.85,ESE,121,0.0,0.0,91,0.00,,---,0.39,VWS V14.01,2013-09-23 02:30:00,
2013-09-22 22:35:00,66.6,63.9,29.86,ESE,121,0.0,0.0,91,0.00,,---,0.39,VWS V14.01,2013-09-23 02:35:00,
2013-09-22 22:40:00,66.4,63.7,29.86,ESE,121,0.0,0.0,91,0.00,,---,0.39,VWS V14.01,2013-09-23 02:40:00,
2013-09-22 22:45:00,66.2,63.8,29.86,ESE,121,0.0,0.0,92,0.00,,---,0.39,VWS V14.01,2013-09-23 02:45:00,
2013-09-22 22:50:00,66.0,63.6,29.86,ESE,121,0.0,0.0,92,0.00,,---,0.39,VWS V14.01,2013-09-23 02:50:00,
2013-09-22 22:55:00,65.9,63.5,29.86,ESE,121,0.0,0.0,92,0.00,,---,0.39,VWS V14.01,2013-09-23 02:55:00,
2013-09-22 23:00:00,65.8,63.4,29.86,ESE,121,0.0,0.0,92,0.00,,---,0.39,VWS V14.01,2013-09-23 03:00:00,
2013-09-22 23:05:00,65.7,63.3,29.87,ESE,121,0.0,0.0,92,0.00,,---,0.39,VWS V14.01,2013-09-23 03:05:00,
2013-09-22 23:10:00,65.5,63.1,29.87,ESE,121,0.0,0.0,92,0.00,,---,0.39,VWS V14.01,2013-09-23 03:10:00,
2013-09-22 23:15:00,65.6,63.5,29.87,ESE,121,0.0,0.0,93,0.00,,---,0.39,VWS V14.01,2013-09-23 03:15:00,
2013-09-22 23:20:00,65.6,63.5,29.87,ESE,121,0.0,0.0,93,0.00,,---,0.39,VWS V14.01,2013-09-23 03:20:00,
2013-09-22 23:25:00,65.6,63.5,29.87,ESE,121,0.0,0.0,93,0.00,,---,0.39,VWS V14.01,2013-09-23 03:25:00,
2013-09-22 23:30:00,65.5,63.4,29.87,ESE,121,0.0,0.0,93,0.00,,---,0.39,VWS V14.01,2013-09-23 03:30:00,
2013-09-22 23:35:00,65.3,63.2,29.87,ESE,121,0.0,0.0,93,0.00,,---,0.39,VWS V14.01,2013-09-23 03:35:00,
2013-09-22 23:40:00,65.2,63.1,29.87,ESE,121,0.0,0.0,93,0.00,,---,0.39,VWS V14.01,2013-09-23 03:40:00,
2013-09-22 23:45:00,65.1,63.0,29.87,ESE,121,0.0,0.0,93,0.00,,---,0.39,VWS V14.01,2013-09-23 03:45:00,
2013-09-22 23:50:00,65.0,62.6,29.87,ESE,121,0.0,0.0,92,0.00,,---,0.39,VWS V14.01,2013-09-23 03:50:00,
2013-09-22 23:55:00,65.0,62.9,29.87,ESE,121,0.0,0.0,93,0.00,,---,0.39,VWS V14.01,2013-09-23 03:55:00,